sensor_id;sensor_type;location;lat;lon;timestamp;temperature;humidity
75155;HTU21D;63735;44.730;37.818;2022-10-16T09:58:13;23.38;42.12
75155;HTU21D;63735;44.730;37.818;2022-10-16T10:00:41;23.24;42.22
75155;HTU21D;63735;44.730;37.818;2022-10-16T10:03:11;23.28;42.16
75155;HTU21D;63735;44.730;37.818;2022-10-16T10:05:39;23.22;42.36
75155;HTU21D;63735;44.730;37.818;2022-10-16T10:08:05;23.18;42.36
75155;HTU21D;63735;44.730;37.818;2022-10-16T10:10:42;23.05;42.65
75155;HTU21D;63735;44.730;37.818;2022-10-16T10:13:19;22.95;43.05
75155;HTU21D;63735;44.730;37.818;2022-10-16T10:15:45;23.07;43.13
75155;HTU21D;63735;44.730;37.818;2022-10-16T10:18:17;23.08;42.94
75155;HTU21D;63735;44.730;37.818;2022-10-16T10:20:45;22.88;43.05
75155;HTU21D;63735;44.730;37.818;2022-10-16T10:23:22;22.73;43.39
75155;HTU21D;63735;44.730;37.818;2022-10-16T10:26:27;22.51;43.94
75155;HTU21D;63735;44.730;37.818;2022-10-16T10:29:46;22.19;44.43
75155;HTU21D;63735;44.730;37.818;2022-10-16T10:32:04;21.88;45.14
75155;HTU21D;63735;44.730;37.818;2022-10-16T10:40:15;21.32;46.54
75155;HTU21D;63735;44.730;37.818;2022-10-16T10:42:53;21.08;47.00
75155;HTU21D;63735;44.730;37.818;2022-10-16T10:45:28;20.94;47.43
75155;HTU21D;63735;44.730;37.818;2022-10-16T10:53:37;20.65;48.50
75155;HTU21D;63735;44.730;37.818;2022-10-16T10:56:16;20.72;48.48
75155;HTU21D;63735;44.730;37.818;2022-10-16T11:07:04;20.60;48.92
75155;HTU21D;63735;44.730;37.818;2022-10-16T11:09:38;20.46;49.31
75155;HTU21D;63735;44.730;37.818;2022-10-16T11:14:45;20.22;49.97
75155;HTU21D;63735;44.730;37.818;2022-10-16T11:20:16;19.92;50.82
75155;HTU21D;63735;44.730;37.818;2022-10-16T11:22:46;19.89;51.01
75155;HTU21D;63735;44.730;37.818;2022-10-16T11:25:32;19.83;51.42
75155;HTU21D;63735;44.730;37.818;2022-10-16T11:31:07;19.88;51.66
75155;HTU21D;63735;44.730;37.818;2022-10-16T11:33:40;19.84;51.71
75155;HTU21D;63735;44.730;37.818;2022-10-16T11:36:23;19.79;51.99
75155;HTU21D;63735;44.730;37.818;2022-10-16T11:39:03;19.73;52.14
75155;HTU21D;63735;44.730;37.818;2022-10-16T11:41:43;19.75;52.50
75155;HTU21D;63735;44.730;37.818;2022-10-16T11:46:46;19.70;52.56
75155;HTU21D;63735;44.730;37.818;2022-10-16T11:49:25;19.70;52.89
75155;HTU21D;63735;44.730;37.818;2022-10-16T11:52:19;19.68;52.96
75155;HTU21D;63735;44.730;37.818;2022-10-16T11:54:57;19.63;53.10
75155;HTU21D;63735;44.730;37.818;2022-10-16T11:57:32;19.57;53.39
75155;HTU21D;63735;44.730;37.818;2022-10-16T12:00:20;19.54;53.77
75155;HTU21D;63735;44.730;37.818;2022-10-16T12:08:44;19.58;53.83
75155;HTU21D;63735;44.730;37.818;2022-10-16T12:13:49;19.45;54.23
75155;HTU21D;63735;44.730;37.818;2022-10-16T12:18:43;19.41;54.65
75155;HTU21D;63735;44.730;37.818;2022-10-16T12:21:10;19.46;54.75
75155;HTU21D;63735;44.730;37.818;2022-10-16T12:26:12;19.66;54.78
75155;HTU21D;63735;44.730;37.818;2022-10-16T12:28:38;19.61;54.78
75155;HTU21D;63735;44.730;37.818;2022-10-16T12:31:06;19.63;54.92
75155;HTU21D;63735;44.730;37.818;2022-10-16T12:33:36;19.59;54.95
75155;HTU21D;63735;44.730;37.818;2022-10-16T12:36:09;19.57;55.07
75155;HTU21D;63735;44.730;37.818;2022-10-16T12:38:49;19.61;55.16
75155;HTU21D;63735;44.730;37.818;2022-10-16T12:43:56;19.66;55.25
75155;HTU21D;63735;44.730;37.818;2022-10-16T12:51:53;19.51;55.78
75155;HTU21D;63735;44.730;37.818;2022-10-16T12:54:40;19.55;56.05
75155;HTU21D;63735;44.730;37.818;2022-10-16T13:01:18;19.63;56.13
75155;HTU21D;63735;44.730;37.818;2022-10-16T13:04:17;19.60;56.11
75155;HTU21D;63735;44.730;37.818;2022-10-16T13:28:42;19.11;57.36
75155;HTU21D;63735;44.730;37.818;2022-10-16T13:31:21;19.05;57.64
75155;HTU21D;63735;44.730;37.818;2022-10-16T13:33:53;19.02;57.71
75155;HTU21D;63735;44.730;37.818;2022-10-16T13:36:33;19.00;57.70
75155;HTU21D;63735;44.730;37.818;2022-10-16T13:39:49;18.97;58.07
75155;HTU21D;63735;44.730;37.818;2022-10-16T13:42:24;18.92;58.04
75155;HTU21D;63735;44.730;37.818;2022-10-16T13:44:53;18.86;58.16
75155;HTU21D;63735;44.730;37.818;2022-10-16T13:47:25;18.84;58.28
75155;HTU21D;63735;44.730;37.818;2022-10-16T13:52:30;18.79;58.38
75155;HTU21D;63735;44.730;37.818;2022-10-16T13:54:56;18.74;58.52
75155;HTU21D;63735;44.730;37.818;2022-10-16T13:57:24;18.69;58.69
75155;HTU21D;63735;44.730;37.818;2022-10-16T13:59:51;18.65;58.73
75155;HTU21D;63735;44.730;37.818;2022-10-16T14:02:26;18.62;59.03
75155;HTU21D;63735;44.730;37.818;2022-10-16T14:04:53;18.58;59.01
75155;HTU21D;63735;44.730;37.818;2022-10-16T14:07:28;18.55;59.19
75155;HTU21D;63735;44.730;37.818;2022-10-16T14:09:55;18.52;59.25
75155;HTU21D;63735;44.730;37.818;2022-10-16T14:12:22;18.51;59.26
75155;HTU21D;63735;44.730;37.818;2022-10-16T14:14:51;18.44;59.27
75155;HTU21D;63735;44.730;37.818;2022-10-16T14:17:24;18.39;59.43
75155;HTU21D;63735;44.730;37.818;2022-10-16T14:19:54;18.35;59.43
75155;HTU21D;63735;44.730;37.818;2022-10-16T14:22:27;18.32;59.51
75155;HTU21D;63735;44.730;37.818;2022-10-16T14:24:53;18.27;59.54
75155;HTU21D;63735;44.730;37.818;2022-10-16T14:27:37;18.24;59.59
75155;HTU21D;63735;44.730;37.818;2022-10-16T14:30:18;18.19;59.63
75155;HTU21D;63735;44.730;37.818;2022-10-16T14:35:33;18.11;59.84
75155;HTU21D;63735;44.730;37.818;2022-10-16T14:38:02;18.07;59.95
75155;HTU21D;63735;44.730;37.818;2022-10-16T14:40:34;18.04;60.06
75155;HTU21D;63735;44.730;37.818;2022-10-16T14:43:02;18.00;60.09
75155;HTU21D;63735;44.730;37.818;2022-10-16T14:45:31;17.96;60.23
75155;HTU21D;63735;44.730;37.818;2022-10-16T14:48:14;17.94;60.25
75155;HTU21D;63735;44.730;37.818;2022-10-16T14:50:42;17.93;60.30
75155;HTU21D;63735;44.730;37.818;2022-10-16T14:53:11;17.90;60.37
75155;HTU21D;63735;44.730;37.818;2022-10-16T14:55:38;17.88;60.41
75155;HTU21D;63735;44.730;37.818;2022-10-16T14:58:06;17.87;60.60
75155;HTU21D;63735;44.730;37.818;2022-10-16T15:00:33;17.87;60.55
75155;HTU21D;63735;44.730;37.818;2022-10-16T15:02:59;17.85;60.62
75155;HTU21D;63735;44.730;37.818;2022-10-16T15:05:27;17.84;60.64
75155;HTU21D;63735;44.730;37.818;2022-10-16T15:07:55;17.82;60.73
75155;HTU21D;63735;44.730;37.818;2022-10-16T15:10:22;17.79;60.73
75155;HTU21D;63735;44.730;37.818;2022-10-16T15:12:49;17.79;60.75
75155;HTU21D;63735;44.730;37.818;2022-10-16T15:17:55;17.76;60.92
75155;HTU21D;63735;44.730;37.818;2022-10-16T15:20:27;17.74;60.97
75155;HTU21D;63735;44.730;37.818;2022-10-16T15:22:53;17.73;61.02
75155;HTU21D;63735;44.730;37.818;2022-10-16T15:25:32;17.69;61.18
75155;HTU21D;63735;44.730;37.818;2022-10-16T15:28:03;17.66;61.24
75155;HTU21D;63735;44.730;37.818;2022-10-16T15:30:35;17.64;61.28
75155;HTU21D;63735;44.730;37.818;2022-10-16T15:33:03;17.62;61.35
75155;HTU21D;63735;44.730;37.818;2022-10-16T15:35:29;17.63;61.41
75155;HTU21D;63735;44.730;37.818;2022-10-16T15:37:55;17.56;61.30
75155;HTU21D;63735;44.730;37.818;2022-10-16T15:40:22;17.54;61.41
75155;HTU21D;63735;44.730;37.818;2022-10-16T15:42:48;17.53;61.57
75155;HTU21D;63735;44.730;37.818;2022-10-16T15:45:15;17.51;61.56
75155;HTU21D;63735;44.730;37.818;2022-10-16T15:47:42;17.49;61.63
75155;HTU21D;63735;44.730;37.818;2022-10-16T15:50:12;17.46;61.73
75155;HTU21D;63735;44.730;37.818;2022-10-16T15:52:39;17.45;61.70
75155;HTU21D;63735;44.730;37.818;2022-10-16T15:55:08;17.45;61.73
75155;HTU21D;63735;44.730;37.818;2022-10-16T15:57:36;17.43;61.76
75155;HTU21D;63735;44.730;37.818;2022-10-16T16:00:16;17.40;61.86
75155;HTU21D;63735;44.730;37.818;2022-10-16T16:02:45;17.39;61.89
75155;HTU21D;63735;44.730;37.818;2022-10-16T16:05:15;17.35;61.98
75155;HTU21D;63735;44.730;37.818;2022-10-16T16:07:41;17.33;62.08
75155;HTU21D;63735;44.730;37.818;2022-10-16T16:10:09;17.30;62.18
75155;HTU21D;63735;44.730;37.818;2022-10-16T16:12:36;17.30;62.23
75155;HTU21D;63735;44.730;37.818;2022-10-16T16:15:05;17.25;62.28
75155;HTU21D;63735;44.730;37.818;2022-10-16T16:17:33;17.24;62.29
75155;HTU21D;63735;44.730;37.818;2022-10-16T16:19:58;17.21;62.34
75155;HTU21D;63735;44.730;37.818;2022-10-16T16:22:24;17.20;62.37
75155;HTU21D;63735;44.730;37.818;2022-10-16T16:24:50;17.17;62.41
75155;HTU21D;63735;44.730;37.818;2022-10-16T16:27:16;17.15;62.41
75155;HTU21D;63735;44.730;37.818;2022-10-16T16:29:42;17.13;62.38
75155;HTU21D;63735;44.730;37.818;2022-10-16T16:32:08;17.10;62.34
75155;HTU21D;63735;44.730;37.818;2022-10-16T16:34:34;17.09;62.35
75155;HTU21D;63735;44.730;37.818;2022-10-16T16:37:00;17.05;62.31
75155;HTU21D;63735;44.730;37.818;2022-10-16T16:39:26;17.04;62.29
75155;HTU21D;63735;44.730;37.818;2022-10-16T16:41:52;17.02;62.30
75155;HTU21D;63735;44.730;37.818;2022-10-16T16:44:24;16.98;62.35
75155;HTU21D;63735;44.730;37.818;2022-10-16T16:46:50;16.94;62.33
75155;HTU21D;63735;44.730;37.818;2022-10-16T16:49:16;16.91;62.40
75155;HTU21D;63735;44.730;37.818;2022-10-16T16:51:42;16.89;62.41
75155;HTU21D;63735;44.730;37.818;2022-10-16T16:54:10;16.87;62.44
75155;HTU21D;63735;44.730;37.818;2022-10-16T16:56:37;16.84;62.53
75155;HTU21D;63735;44.730;37.818;2022-10-16T16:59:03;16.81;62.62
75155;HTU21D;63735;44.730;37.818;2022-10-16T17:01:31;16.79;62.75
75155;HTU21D;63735;44.730;37.818;2022-10-16T17:03:57;16.76;62.86
75155;HTU21D;63735;44.730;37.818;2022-10-16T17:06:28;16.73;62.92
75155;HTU21D;63735;44.730;37.818;2022-10-16T17:08:55;16.71;63.10
75155;HTU21D;63735;44.730;37.818;2022-10-16T17:11:23;16.69;63.16
75155;HTU21D;63735;44.730;37.818;2022-10-16T17:13:50;16.67;63.24
75155;HTU21D;63735;44.730;37.818;2022-10-16T17:16:17;16.63;63.34
75155;HTU21D;63735;44.730;37.818;2022-10-16T17:18:43;16.62;63.41
75155;HTU21D;63735;44.730;37.818;2022-10-16T17:21:10;16.59;63.45
75155;HTU21D;63735;44.730;37.818;2022-10-16T17:23:36;16.57;63.43
75155;HTU21D;63735;44.730;37.818;2022-10-16T17:28:31;16.52;63.46
75155;HTU21D;63735;44.730;37.818;2022-10-16T17:31:25;16.49;63.52
75155;HTU21D;63735;44.730;37.818;2022-10-16T17:33:51;16.46;63.49
75155;HTU21D;63735;44.730;37.818;2022-10-16T17:36:18;16.43;63.68
75155;HTU21D;63735;44.730;37.818;2022-10-16T17:38:45;16.42;64.07
75155;HTU21D;63735;44.730;37.818;2022-10-16T17:41:13;16.35;64.34
75155;HTU21D;63735;44.730;37.818;2022-10-16T17:43:44;16.31;64.48
75155;HTU21D;63735;44.730;37.818;2022-10-16T17:46:15;16.26;64.63
75155;HTU21D;63735;44.730;37.818;2022-10-16T17:48:44;16.24;64.78
75155;HTU21D;63735;44.730;37.818;2022-10-16T17:51:14;16.22;64.88
75155;HTU21D;63735;44.730;37.818;2022-10-16T17:53:49;16.20;64.98
75155;HTU21D;63735;44.730;37.818;2022-10-16T17:56:16;16.18;65.05
75155;HTU21D;63735;44.730;37.818;2022-10-16T17:58:51;16.16;65.19
75155;HTU21D;63735;44.730;37.818;2022-10-16T18:01:30;16.14;65.21
75155;HTU21D;63735;44.730;37.818;2022-10-16T18:04:07;16.14;65.33
75155;HTU21D;63735;44.730;37.818;2022-10-16T18:06:35;16.12;65.32
75155;HTU21D;63735;44.730;37.818;2022-10-16T18:09:03;16.10;65.37
75155;HTU21D;63735;44.730;37.818;2022-10-16T18:11:31;16.10;65.42
75155;HTU21D;63735;44.730;37.818;2022-10-16T18:13:58;16.08;65.63
75155;HTU21D;63735;44.730;37.818;2022-10-16T18:16:30;16.07;65.66
75155;HTU21D;63735;44.730;37.818;2022-10-16T18:19:01;16.04;65.87
75155;HTU21D;63735;44.730;37.818;2022-10-16T18:21:27;16.04;65.95
75155;HTU21D;63735;44.730;37.818;2022-10-16T18:23:56;16.03;65.92
75155;HTU21D;63735;44.730;37.818;2022-10-16T18:26:22;16.01;66.11
75155;HTU21D;63735;44.730;37.818;2022-10-16T18:28:52;16.00;66.12
75155;HTU21D;63735;44.730;37.818;2022-10-16T18:31:19;15.99;66.23
75155;HTU21D;63735;44.730;37.818;2022-10-16T18:33:45;15.99;66.25
75155;HTU21D;63735;44.730;37.818;2022-10-16T18:36:22;15.99;66.43
75155;HTU21D;63735;44.730;37.818;2022-10-16T18:38:48;15.99;66.23
75155;HTU21D;63735;44.730;37.818;2022-10-16T18:41:15;15.98;66.30
75155;HTU21D;63735;44.730;37.818;2022-10-16T18:43:41;15.96;66.33
75155;HTU21D;63735;44.730;37.818;2022-10-16T18:46:10;15.96;66.51
75155;HTU21D;63735;44.730;37.818;2022-10-16T18:48:36;15.98;66.37
75155;HTU21D;63735;44.730;37.818;2022-10-16T18:51:10;15.98;66.44
75155;HTU21D;63735;44.730;37.818;2022-10-16T18:53:39;15.97;66.46
75155;HTU21D;63735;44.730;37.818;2022-10-16T18:56:06;15.96;66.52
75155;HTU21D;63735;44.730;37.818;2022-10-16T18:58:36;15.93;66.53
75155;HTU21D;63735;44.730;37.818;2022-10-16T19:01:07;15.92;66.62
75155;HTU21D;63735;44.730;37.818;2022-10-16T19:03:34;15.90;66.64
75155;HTU21D;63735;44.730;37.818;2022-10-16T19:06:02;15.89;66.83
75155;HTU21D;63735;44.730;37.818;2022-10-16T19:08:30;15.85;67.36
75155;HTU21D;63735;44.730;37.818;2022-10-16T19:11:03;15.77;68.03
75155;HTU21D;63735;44.730;37.818;2022-10-16T19:13:29;15.66;68.65
75155;HTU21D;63735;44.730;37.818;2022-10-16T19:15:55;15.52;69.33
75155;HTU21D;63735;44.730;37.818;2022-10-16T19:18:21;15.40;70.04
75155;HTU21D;63735;44.730;37.818;2022-10-16T19:20:47;15.32;70.22
75155;HTU21D;63735;44.730;37.818;2022-10-16T19:23:13;15.26;70.51
75155;HTU21D;63735;44.730;37.818;2022-10-16T19:25:39;15.21;71.03
75155;HTU21D;63735;44.730;37.818;2022-10-16T19:28:05;15.15;71.30
75155;HTU21D;63735;44.730;37.818;2022-10-16T19:30:36;15.17;71.93
75155;HTU21D;63735;44.730;37.818;2022-10-16T19:33:03;15.13;71.35
75155;HTU21D;63735;44.730;37.818;2022-10-16T19:35:30;15.12;71.71
75155;HTU21D;63735;44.730;37.818;2022-10-16T19:37:57;15.14;71.58
75155;HTU21D;63735;44.730;37.818;2022-10-16T19:40:23;15.15;71.53
75155;HTU21D;63735;44.730;37.818;2022-10-16T19:42:49;15.17;71.71
75155;HTU21D;63735;44.730;37.818;2022-10-16T19:45:15;15.18;71.62
75155;HTU21D;63735;44.730;37.818;2022-10-16T19:47:41;15.18;71.71
75155;HTU21D;63735;44.730;37.818;2022-10-16T19:50:10;15.19;71.75
75155;HTU21D;63735;44.730;37.818;2022-10-16T19:52:37;15.21;71.71
75155;HTU21D;63735;44.730;37.818;2022-10-16T19:55:06;15.21;71.67
75155;HTU21D;63735;44.730;37.818;2022-10-16T19:57:34;15.22;71.61
75155;HTU21D;63735;44.730;37.818;2022-10-16T20:00:02;15.23;71.47
75155;HTU21D;63735;44.730;37.818;2022-10-16T20:02:33;15.25;71.28
75155;HTU21D;63735;44.730;37.818;2022-10-16T20:04:59;15.27;71.20
75155;HTU21D;63735;44.730;37.818;2022-10-16T20:07:25;15.29;71.16
75155;HTU21D;63735;44.730;37.818;2022-10-16T20:09:51;15.29;71.07
75155;HTU21D;63735;44.730;37.818;2022-10-16T20:12:18;15.30;71.07
75155;HTU21D;63735;44.730;37.818;2022-10-16T20:14:44;15.30;71.04
75155;HTU21D;63735;44.730;37.818;2022-10-16T20:17:10;15.32;71.03
75155;HTU21D;63735;44.730;37.818;2022-10-16T20:19:36;15.32;70.93
75155;HTU21D;63735;44.730;37.818;2022-10-16T20:22:04;15.31;70.88
75155;HTU21D;63735;44.730;37.818;2022-10-16T20:24:30;15.31;70.93
75155;HTU21D;63735;44.730;37.818;2022-10-16T20:26:56;15.30;71.01
75155;HTU21D;63735;44.730;37.818;2022-10-16T20:29:24;15.28;71.09
75155;HTU21D;63735;44.730;37.818;2022-10-16T20:31:50;15.26;71.12
75155;HTU21D;63735;44.730;37.818;2022-10-16T20:34:16;15.24;71.09
75155;HTU21D;63735;44.730;37.818;2022-10-16T20:36:42;15.25;71.06
75155;HTU21D;63735;44.730;37.818;2022-10-16T20:39:10;15.22;71.03
75155;HTU21D;63735;44.730;37.818;2022-10-16T20:41:38;15.19;71.12
75155;HTU21D;63735;44.730;37.818;2022-10-16T20:44:04;15.15;71.19
75155;HTU21D;63735;44.730;37.818;2022-10-16T20:46:31;15.15;71.26
75155;HTU21D;63735;44.730;37.818;2022-10-16T20:48:58;15.13;71.31
75155;HTU21D;63735;44.730;37.818;2022-10-16T20:51:30;15.11;71.38
75155;HTU21D;63735;44.730;37.818;2022-10-16T20:53:57;15.11;71.36
75155;HTU21D;63735;44.730;37.818;2022-10-16T20:56:24;15.12;71.42
75155;HTU21D;63735;44.730;37.818;2022-10-16T20:58:51;15.10;71.29
75155;HTU21D;63735;44.730;37.818;2022-10-16T21:01:20;15.11;71.17
75155;HTU21D;63735;44.730;37.818;2022-10-16T21:03:52;15.11;71.13
75155;HTU21D;63735;44.730;37.818;2022-10-16T21:06:18;15.10;70.97
75155;HTU21D;63735;44.730;37.818;2022-10-16T21:08:44;15.09;70.90
75155;HTU21D;63735;44.730;37.818;2022-10-16T21:13:43;15.06;70.81
75155;HTU21D;63735;44.730;37.818;2022-10-16T21:16:11;15.06;70.82
75155;HTU21D;63735;44.730;37.818;2022-10-16T21:18:37;15.03;70.67
75155;HTU21D;63735;44.730;37.818;2022-10-16T21:21:04;15.01;70.61
75155;HTU21D;63735;44.730;37.818;2022-10-16T21:23:31;15.00;70.48
75155;HTU21D;63735;44.730;37.818;2022-10-16T21:25:58;14.96;70.40
75155;HTU21D;63735;44.730;37.818;2022-10-16T21:28:27;14.95;70.45
75155;HTU21D;63735;44.730;37.818;2022-10-16T21:30:54;14.92;70.41
75155;HTU21D;63735;44.730;37.818;2022-10-16T21:33:21;14.91;70.42
75155;HTU21D;63735;44.730;37.818;2022-10-16T21:35:47;14.91;70.36
75155;HTU21D;63735;44.730;37.818;2022-10-16T21:38:13;14.91;70.34
75155;HTU21D;63735;44.730;37.818;2022-10-16T21:40:39;14.88;70.26
75155;HTU21D;63735;44.730;37.818;2022-10-16T21:43:05;14.85;70.24
75155;HTU21D;63735;44.730;37.818;2022-10-16T21:45:32;14.86;70.23
75155;HTU21D;63735;44.730;37.818;2022-10-16T21:47:58;14.88;70.16
75155;HTU21D;63735;44.730;37.818;2022-10-16T21:50:24;14.89;70.08
75155;HTU21D;63735;44.730;37.818;2022-10-16T21:52:50;14.88;70.03
75155;HTU21D;63735;44.730;37.818;2022-10-16T21:55:16;14.89;69.97
75155;HTU21D;63735;44.730;37.818;2022-10-16T21:57:44;14.93;69.91
75155;HTU21D;63735;44.730;37.818;2022-10-16T22:00:10;14.93;69.85
75155;HTU21D;63735;44.730;37.818;2022-10-16T22:02:36;14.94;69.81
75155;HTU21D;63735;44.730;37.818;2022-10-16T22:05:02;14.94;69.74
75155;HTU21D;63735;44.730;37.818;2022-10-16T22:07:28;14.93;69.71
75155;HTU21D;63735;44.730;37.818;2022-10-16T22:09:54;14.94;69.77
75155;HTU21D;63735;44.730;37.818;2022-10-16T22:12:20;14.93;69.74
75155;HTU21D;63735;44.730;37.818;2022-10-16T22:14:46;14.93;69.69
75155;HTU21D;63735;44.730;37.818;2022-10-16T22:17:12;14.92;69.49
75155;HTU21D;63735;44.730;37.818;2022-10-16T22:19:38;14.91;69.45
75155;HTU21D;63735;44.730;37.818;2022-10-16T22:22:04;14.91;69.37
75155;HTU21D;63735;44.730;37.818;2022-10-16T22:24:30;14.92;69.23
75155;HTU21D;63735;44.730;37.818;2022-10-16T22:26:56;14.93;69.08
75155;HTU21D;63735;44.730;37.818;2022-10-16T22:29:22;14.93;68.94
75155;HTU21D;63735;44.730;37.818;2022-10-16T22:31:52;14.94;68.84
75155;HTU21D;63735;44.730;37.818;2022-10-16T22:34:18;14.94;68.71
75155;HTU21D;63735;44.730;37.818;2022-10-16T22:36:44;14.94;68.54
75155;HTU21D;63735;44.730;37.818;2022-10-16T22:39:10;14.92;68.48
75155;HTU21D;63735;44.730;37.818;2022-10-16T22:41:36;14.93;68.42
75155;HTU21D;63735;44.730;37.818;2022-10-16T22:44:02;14.94;68.41
75155;HTU21D;63735;44.730;37.818;2022-10-16T22:46:29;14.93;68.39
75155;HTU21D;63735;44.730;37.818;2022-10-16T22:48:56;14.93;68.39
75155;HTU21D;63735;44.730;37.818;2022-10-16T22:51:23;14.93;68.36
75155;HTU21D;63735;44.730;37.818;2022-10-16T22:53:49;14.93;68.25
75155;HTU21D;63735;44.730;37.818;2022-10-16T22:56:16;14.92;68.23
75155;HTU21D;63735;44.730;37.818;2022-10-16T22:58:43;14.95;68.21
75155;HTU21D;63735;44.730;37.818;2022-10-16T23:01:23;14.91;68.25
75155;HTU21D;63735;44.730;37.818;2022-10-16T23:03:51;14.91;68.19
75155;HTU21D;63735;44.730;37.818;2022-10-16T23:06:17;14.88;68.13
75155;HTU21D;63735;44.730;37.818;2022-10-16T23:08:43;14.89;67.97
75155;HTU21D;63735;44.730;37.818;2022-10-16T23:11:11;14.88;68.01
75155;HTU21D;63735;44.730;37.818;2022-10-16T23:13:38;14.86;68.01
75155;HTU21D;63735;44.730;37.818;2022-10-16T23:16:06;14.85;68.03
75155;HTU21D;63735;44.730;37.818;2022-10-16T23:18:32;14.85;68.03
75155;HTU21D;63735;44.730;37.818;2022-10-16T23:21:06;14.85;67.98
75155;HTU21D;63735;44.730;37.818;2022-10-16T23:23:36;14.85;67.91
75155;HTU21D;63735;44.730;37.818;2022-10-16T23:26:08;14.86;67.90
75155;HTU21D;63735;44.730;37.818;2022-10-16T23:28:34;14.86;67.81
75155;HTU21D;63735;44.730;37.818;2022-10-16T23:31:03;14.86;67.80
75155;HTU21D;63735;44.730;37.818;2022-10-16T23:33:30;14.87;67.79
75155;HTU21D;63735;44.730;37.818;2022-10-16T23:35:57;14.86;67.76
75155;HTU21D;63735;44.730;37.818;2022-10-16T23:38:23;14.85;67.74
75155;HTU21D;63735;44.730;37.818;2022-10-16T23:40:48;14.84;67.70
75155;HTU21D;63735;44.730;37.818;2022-10-16T23:43:14;14.83;67.67
75155;HTU21D;63735;44.730;37.818;2022-10-16T23:45:41;14.82;67.66
75155;HTU21D;63735;44.730;37.818;2022-10-16T23:48:07;14.81;67.66
75155;HTU21D;63735;44.730;37.818;2022-10-16T23:50:33;14.80;67.65
75155;HTU21D;63735;44.730;37.818;2022-10-16T23:52:59;14.78;67.68
75155;HTU21D;63735;44.730;37.818;2022-10-16T23:55:25;14.77;67.68
75155;HTU21D;63735;44.730;37.818;2022-10-16T23:57:51;14.77;67.72
